createdAt,value
2022-12-22T00:00:11.059Z,19.12
2022-12-22T00:01:11.085Z,19.10
2022-12-22T00:02:11.285Z,19.13
2022-12-22T00:03:11.354Z,19.13
2022-12-22T00:04:11.268Z,19.12
2022-12-22T00:05:11.121Z,19.12
2022-12-22T00:06:11.142Z,19.09
2022-12-22T00:07:11.161Z,19.09
2022-12-22T00:08:11.170Z,19.09
2022-12-22T00:09:11.219Z,19.07
2022-12-22T00:10:11.246Z,19.09
2022-12-22T00:11:11.232Z,19.09
2022-12-22T00:12:11.252Z,19.09
2022-12-22T00:13:11.277Z,19.07
2022-12-22T00:14:11.312Z,19.09
2022-12-22T00:15:11.339Z,19.09
2022-12-22T00:16:11.388Z,19.10
2022-12-22T00:17:11.374Z,19.10
2022-12-22T00:18:11.332Z,19.12
2022-12-22T00:19:11.350Z,19.10
2022-12-22T00:20:18.162Z,19.12
2022-12-22T00:21:11.394Z,19.09
2022-12-22T00:22:11.413Z,19.10
2022-12-22T00:23:11.458Z,19.07
2022-12-22T00:24:11.465Z,19.07
2022-12-22T00:25:11.543Z,19.06
2022-12-22T00:26:11.502Z,19.06
2022-12-22T00:27:11.524Z,19.06
2022-12-22T00:28:11.560Z,19.02
2022-12-22T00:29:11.571Z,19.02
2022-12-22T00:30:11.574Z,19.01
2022-12-22T00:31:11.680Z,19.01
2022-12-22T00:32:11.604Z,19.01
2022-12-22T00:33:11.618Z,19.02
2022-12-22T00:34:11.637Z,19.05
2022-12-22T00:35:11.683Z,19.01
2022-12-22T00:36:11.665Z,19.01
2022-12-22T00:37:11.669Z,19.02
2022-12-22T00:38:11.699Z,19.01
2022-12-22T00:39:11.651Z,19.05
2022-12-22T00:40:11.690Z,19.01
2022-12-22T00:41:11.739Z,19.02
2022-12-22T00:42:11.757Z,18.99
2022-12-22T00:43:11.773Z,18.99
2022-12-22T00:44:11.800Z,18.99
2022-12-22T00:45:11.824Z,18.99
2022-12-22T00:46:11.915Z,18.99
2022-12-22T00:47:11.868Z,19.01
2022-12-22T00:48:11.893Z,19.01
2022-12-22T00:49:11.907Z,19.05
2022-12-22T00:50:11.941Z,19.05
2022-12-22T00:51:11.910Z,19.05
2022-12-22T00:52:11.933Z,19.05
2022-12-22T00:53:11.948Z,19.02
2022-12-22T00:54:11.971Z,19.02
2022-12-22T00:55:11.989Z,19.06
2022-12-22T00:56:11.972Z,19.05
2022-12-22T00:57:12.021Z,19.02
2022-12-22T00:58:12.046Z,19.02
2022-12-22T00:59:12.061Z,19.05
2022-12-22T01:00:12.097Z,19.06
2022-12-22T01:01:12.094Z,19.06
2022-12-22T01:02:12.327Z,19.02
2022-12-22T01:03:12.220Z,19.07
2022-12-22T01:04:12.082Z,19.06
2022-12-22T01:05:12.108Z,19.06
2022-12-22T01:06:12.134Z,19.06
2022-12-22T01:07:12.176Z,19.05
2022-12-22T01:08:12.192Z,19.05
2022-12-22T01:09:12.214Z,19.06
2022-12-22T01:10:12.239Z,19.02
2022-12-22T01:11:12.257Z,19.01
2022-12-22T01:12:12.261Z,19.01
2022-12-22T01:13:12.307Z,18.99
2022-12-22T01:14:12.322Z,18.99
2022-12-22T01:15:12.332Z,18.99
2022-12-22T01:16:12.413Z,19.01
2022-12-22T01:17:12.366Z,19.02
2022-12-22T01:18:12.400Z,19.02
2022-12-22T01:19:12.370Z,19.01
2022-12-22T01:20:12.387Z,18.97
2022-12-22T01:21:12.406Z,18.97
2022-12-22T01:22:12.446Z,18.97
2022-12-22T01:23:12.547Z,18.96
2022-12-22T01:24:12.466Z,18.97
2022-12-22T01:25:12.463Z,18.96
2022-12-22T01:26:12.465Z,18.99
2022-12-22T01:27:12.512Z,18.99
2022-12-22T01:28:12.533Z,19.02
2022-12-22T01:29:12.580Z,19.01
2022-12-22T01:30:12.530Z,19.02
2022-12-22T01:31:12.632Z,18.99
2022-12-22T01:32:12.601Z,19.01
2022-12-22T01:33:12.601Z,18.99
2022-12-22T01:34:12.605Z,18.97
2022-12-22T01:35:12.625Z,18.96
2022-12-22T01:36:12.646Z,18.97
2022-12-22T01:37:12.705Z,19.01
2022-12-22T01:38:12.667Z,18.99
2022-12-22T01:39:12.684Z,18.97
2022-12-22T01:40:12.714Z,18.96
2022-12-22T01:41:12.761Z,18.97
2022-12-22T01:42:12.761Z,18.96
2022-12-22T01:43:12.710Z,18.97
2022-12-22T01:44:12.720Z,18.97
2022-12-22T01:45:12.773Z,18.99
2022-12-22T01:46:12.793Z,18.97
2022-12-22T01:47:12.810Z,18.99
2022-12-22T01:48:12.768Z,18.99
2022-12-22T01:49:12.806Z,18.99
2022-12-22T01:50:12.816Z,18.99
2022-12-22T01:51:12.835Z,18.99
2022-12-22T01:52:12.893Z,18.97
2022-12-22T01:53:19.510Z,18.97
2022-12-22T01:54:12.857Z,18.96
2022-12-22T01:55:12.888Z,18.96
2022-12-22T01:56:12.946Z,18.96
2022-12-22T01:57:12.931Z,18.96
2022-12-22T01:58:12.932Z,18.96
2022-12-22T01:59:13.023Z,18.97
2022-12-22T02:00:13.016Z,18.97
2022-12-22T02:01:13.047Z,18.94
2022-12-22T02:02:13.201Z,18.96
2022-12-22T02:03:13.053Z,18.94
2022-12-22T02:04:13.068Z,18.96
2022-12-22T02:05:13.035Z,18.96
2022-12-22T02:06:13.067Z,18.96
2022-12-22T02:07:13.080Z,18.97
2022-12-22T02:08:13.093Z,18.96
2022-12-22T02:09:13.098Z,18.97
2022-12-22T02:10:13.129Z,18.99
2022-12-22T02:11:13.146Z,18.97
2022-12-22T02:12:13.171Z,18.97
2022-12-22T02:13:13.188Z,18.99
2022-12-22T02:14:13.201Z,18.97
2022-12-22T02:15:13.231Z,18.97
2022-12-22T02:16:13.253Z,18.99
2022-12-22T02:17:13.250Z,18.99
2022-12-22T02:18:13.229Z,18.97
2022-12-22T02:19:13.255Z,18.97
2022-12-22T02:20:13.312Z,18.97
2022-12-22T02:21:13.311Z,18.97
2022-12-22T02:22:13.381Z,18.96
2022-12-22T02:23:13.379Z,18.91
2022-12-22T02:24:13.367Z,18.93
2022-12-22T02:25:13.398Z,18.93
2022-12-22T02:26:13.365Z,18.93
2022-12-22T02:27:13.413Z,18.96
2022-12-22T02:28:13.381Z,18.96
2022-12-22T02:29:13.392Z,18.97
2022-12-22T02:30:13.415Z,18.97
2022-12-22T02:31:13.511Z,18.97
2022-12-22T02:32:13.463Z,18.96
2022-12-22T02:33:13.491Z,18.94
2022-12-22T02:34:13.506Z,18.93
2022-12-22T02:35:13.524Z,18.93
2022-12-22T02:36:13.557Z,18.94
2022-12-22T02:37:13.571Z,18.96
2022-12-22T02:38:13.590Z,18.96
2022-12-22T02:39:13.598Z,18.93
2022-12-22T02:40:13.635Z,18.94
2022-12-22T02:41:13.650Z,18.93
2022-12-22T02:42:13.697Z,18.93
2022-12-22T02:43:13.668Z,18.93
2022-12-22T02:44:13.675Z,18.93
2022-12-22T02:45:13.723Z,18.93
2022-12-22T02:46:13.801Z,18.93
2022-12-22T02:47:13.725Z,18.91
2022-12-22T02:48:13.731Z,18.93
2022-12-22T02:49:13.800Z,18.90
2022-12-22T02:50:13.779Z,18.91
2022-12-22T02:51:13.785Z,18.91
2022-12-22T02:52:13.805Z,18.89
2022-12-22T02:53:13.799Z,18.90
2022-12-22T02:54:13.820Z,18.90
2022-12-22T02:55:13.853Z,18.91
2022-12-22T02:56:13.863Z,18.90
2022-12-22T02:57:13.872Z,18.90
2022-12-22T02:58:13.890Z,18.90
2022-12-22T02:59:13.895Z,18.90
2022-12-22T03:00:13.908Z,18.90
2022-12-22T03:01:14.147Z,18.90
2022-12-22T03:02:14.160Z,18.89
2022-12-22T03:03:14.095Z,18.90
2022-12-22T03:04:13.939Z,18.91
2022-12-22T03:05:13.993Z,18.91
2022-12-22T03:06:13.959Z,18.93
2022-12-22T03:07:13.991Z,18.94
2022-12-22T03:08:13.962Z,18.93
2022-12-22T03:09:13.992Z,18.94
2022-12-22T03:10:14.000Z,18.94
2022-12-22T03:11:14.015Z,18.97
2022-12-22T03:12:14.034Z,18.96
2022-12-22T03:13:14.036Z,18.94
2022-12-22T03:14:14.048Z,18.96
2022-12-22T03:15:14.072Z,18.96
2022-12-22T03:16:14.168Z,18.96
2022-12-22T03:17:14.074Z,18.96
2022-12-22T03:18:14.095Z,18.96
2022-12-22T03:19:14.112Z,18.96
2022-12-22T03:20:14.107Z,18.94
2022-12-22T03:21:14.171Z,18.91
2022-12-22T03:22:14.165Z,18.93
2022-12-22T03:23:14.129Z,18.94
2022-12-22T03:24:14.143Z,18.94
2022-12-22T03:25:14.152Z,18.94
2022-12-22T03:26:14.172Z,18.96
2022-12-22T03:27:14.235Z,18.94
2022-12-22T03:28:14.200Z,18.94
2022-12-22T03:29:14.222Z,18.96
2022-12-22T03:30:14.218Z,18.96
2022-12-22T03:31:14.322Z,18.96
2022-12-22T03:32:14.264Z,18.94
2022-12-22T03:33:14.257Z,18.93
2022-12-22T03:34:14.276Z,18.94
2022-12-22T03:35:14.305Z,18.91
2022-12-22T03:36:14.346Z,18.91
2022-12-22T03:37:14.401Z,18.93
2022-12-22T03:38:14.367Z,18.91
2022-12-22T03:39:14.381Z,18.91
2022-12-22T03:40:14.401Z,18.96
2022-12-22T03:41:14.432Z,19.01
2022-12-22T03:42:14.465Z,19.07
2022-12-22T03:43:14.447Z,19.12
2022-12-22T03:44:14.457Z,19.21
2022-12-22T03:45:14.462Z,19.30
2022-12-22T03:46:14.509Z,19.40
2022-12-22T03:47:14.629Z,19.52
2022-12-22T03:48:14.513Z,19.61
2022-12-22T03:49:14.531Z,19.75
2022-12-22T03:50:14.591Z,19.83
2022-12-22T03:51:14.525Z,19.95
2022-12-22T03:52:14.568Z,20.04
2022-12-22T03:53:14.561Z,20.15
2022-12-22T03:54:14.525Z,20.23
2022-12-22T03:55:14.525Z,20.33
2022-12-22T03:56:14.561Z,20.41
2022-12-22T03:57:14.572Z,20.53
2022-12-22T03:58:14.592Z,20.63
2022-12-22T03:59:14.606Z,20.69
2022-12-22T04:00:14.619Z,20.78
2022-12-22T04:01:14.731Z,20.83
2022-12-22T04:02:14.720Z,20.93
2022-12-22T04:03:14.867Z,20.98
2022-12-22T04:04:14.689Z,21.06
2022-12-22T04:05:14.715Z,21.15
2022-12-22T04:06:14.733Z,21.22
2022-12-22T04:07:14.727Z,21.28
2022-12-22T04:08:14.751Z,21.33
2022-12-22T04:09:14.798Z,21.37
2022-12-22T04:10:14.799Z,21.40
2022-12-22T04:11:14.842Z,21.45
2022-12-22T04:12:14.822Z,21.49
2022-12-22T04:13:14.862Z,21.51
2022-12-22T04:14:14.876Z,21.53
2022-12-22T04:15:14.911Z,21.58
2022-12-22T04:16:14.962Z,21.63
2022-12-22T04:17:14.946Z,21.66
2022-12-22T04:18:14.968Z,21.67
2022-12-22T04:19:14.969Z,21.70
2022-12-22T04:20:14.981Z,21.73
2022-12-22T04:21:15.003Z,21.75
2022-12-22T04:22:15.061Z,21.77
2022-12-22T04:23:15.037Z,21.79
2022-12-22T04:24:15.041Z,21.81
2022-12-22T04:25:15.111Z,21.83
2022-12-22T04:26:15.075Z,21.85
2022-12-22T04:27:15.103Z,21.85
2022-12-22T04:28:15.177Z,21.86
2022-12-22T04:29:15.068Z,21.86
2022-12-22T04:30:15.090Z,21.90
2022-12-22T04:31:15.096Z,21.90
2022-12-22T04:32:15.269Z,21.94
2022-12-22T04:33:15.116Z,21.93
2022-12-22T04:34:15.164Z,21.96
2022-12-22T04:35:15.132Z,21.96
2022-12-22T04:36:15.418Z,21.98
2022-12-22T04:37:17.769Z,21.98
2022-12-22T04:38:15.202Z,21.99
2022-12-22T04:39:15.219Z,21.99
2022-12-22T04:40:15.237Z,22.01
2022-12-22T04:41:15.274Z,22.02
2022-12-22T04:42:15.289Z,22.02
2022-12-22T04:43:15.307Z,22.02
2022-12-22T04:44:15.314Z,22.04
2022-12-22T04:45:15.332Z,22.04
2022-12-22T04:46:15.405Z,22.04
2022-12-22T04:47:15.359Z,22.05
2022-12-22T04:48:15.387Z,22.04
2022-12-22T04:49:15.360Z,22.05
2022-12-22T04:50:15.382Z,22.05
2022-12-22T04:51:15.400Z,22.06
2022-12-22T04:52:15.407Z,22.06
2022-12-22T04:53:15.439Z,22.05
2022-12-22T04:54:15.452Z,22.06
2022-12-22T04:55:15.471Z,22.06
2022-12-22T04:56:15.502Z,22.05
2022-12-22T04:57:15.537Z,22.08
2022-12-22T04:58:15.543Z,22.06
2022-12-22T04:59:15.554Z,22.06
2022-12-22T05:00:15.565Z,22.05
2022-12-22T05:01:15.802Z,22.05
2022-12-22T05:02:15.776Z,22.06
2022-12-22T05:03:15.696Z,22.06
2022-12-22T05:04:20.282Z,22.06
2022-12-22T05:05:15.635Z,22.05
2022-12-22T05:06:15.661Z,22.06
2022-12-22T05:07:15.681Z,22.05
2022-12-22T05:08:15.724Z,22.06
2022-12-22T05:09:15.726Z,22.05
2022-12-22T05:10:15.747Z,22.06
2022-12-22T05:11:15.727Z,22.05
2022-12-22T05:12:15.784Z,22.06
2022-12-22T05:13:15.787Z,22.05
2022-12-22T05:14:15.790Z,22.05
2022-12-22T05:15:15.847Z,22.05
2022-12-22T05:16:15.866Z,22.05
2022-12-22T05:17:15.857Z,22.05
2022-12-22T05:18:15.853Z,22.04
2022-12-22T05:19:15.867Z,22.04
2022-12-22T05:20:15.841Z,22.04
2022-12-22T05:21:15.885Z,22.02
2022-12-22T05:22:15.886Z,22.02
2022-12-22T05:23:15.910Z,22.01
2022-12-22T05:24:15.917Z,22.04
2022-12-22T05:25:15.968Z,22.02
2022-12-22T05:26:15.993Z,22.01
2022-12-22T05:27:16.010Z,22.01
2022-12-22T05:28:16.031Z,22.02
2022-12-22T05:29:16.070Z,21.99
2022-12-22T05:30:16.070Z,21.99
2022-12-22T05:31:16.156Z,22.01
2022-12-22T05:32:16.100Z,21.98
2022-12-22T05:33:16.122Z,21.98
2022-12-22T05:34:16.158Z,21.98
2022-12-22T05:35:16.160Z,21.96
2022-12-22T05:36:16.213Z,21.96
2022-12-22T05:37:16.247Z,21.94
2022-12-22T05:38:16.170Z,21.93
2022-12-22T05:39:16.178Z,21.93
2022-12-22T05:40:16.227Z,21.93
2022-12-22T05:41:16.226Z,21.90
2022-12-22T05:42:16.250Z,21.90
2022-12-22T05:43:16.300Z,21.90
2022-12-22T05:44:16.302Z,21.86
2022-12-22T05:45:16.420Z,21.86
2022-12-22T05:46:16.362Z,21.85
2022-12-22T05:47:16.317Z,21.85
2022-12-22T05:48:18.875Z,21.86
2022-12-22T05:49:16.326Z,21.85
2022-12-22T05:50:16.357Z,21.85
2022-12-22T05:51:16.317Z,21.83
2022-12-22T05:52:16.356Z,21.82
2022-12-22T05:53:16.360Z,21.85
2022-12-22T05:54:16.384Z,21.85
2022-12-22T05:55:16.396Z,21.83
2022-12-22T05:56:16.402Z,21.82
2022-12-22T05:57:16.430Z,21.79
2022-12-22T05:58:16.434Z,21.81
2022-12-22T05:59:16.459Z,21.81
2022-12-22T06:01:42.429Z,21.77
2022-12-22T06:02:42.541Z,21.77
2022-12-22T06:03:42.560Z,21.77
2022-12-22T06:04:42.382Z,21.77
2022-12-22T06:05:42.381Z,21.75
2022-12-22T06:06:42.380Z,21.74
2022-12-22T06:07:42.419Z,21.74
2022-12-22T06:08:42.441Z,21.74
2022-12-22T06:09:42.484Z,21.73
2022-12-22T06:10:42.535Z,21.73
2022-12-22T06:11:42.498Z,21.74
2022-12-22T06:12:42.524Z,21.74
2022-12-22T06:13:42.564Z,21.71
2022-12-22T06:14:42.546Z,21.70
2022-12-22T06:15:42.697Z,21.70
2022-12-22T06:16:42.604Z,21.68
2022-12-22T06:17:45.089Z,21.68
2022-12-22T06:18:42.596Z,21.67
2022-12-22T06:19:42.672Z,21.67
2022-12-22T06:20:42.623Z,21.66
2022-12-22T06:21:42.624Z,21.66
2022-12-22T06:22:42.658Z,21.64
2022-12-22T06:23:42.673Z,21.64
2022-12-22T06:24:42.675Z,21.64
2022-12-22T06:25:42.709Z,21.64
2022-12-22T06:26:42.720Z,21.63
2022-12-22T06:27:42.751Z,21.61
2022-12-22T06:28:42.725Z,21.61
2022-12-22T06:29:42.739Z,21.59
2022-12-22T06:30:42.770Z,21.61
2022-12-22T06:31:42.869Z,21.59
2022-12-22T06:32:42.929Z,21.58
2022-12-22T06:33:42.798Z,21.56
2022-12-22T06:34:42.793Z,21.58
2022-12-22T06:35:42.780Z,21.56
2022-12-22T06:36:42.793Z,21.56
2022-12-22T06:37:42.834Z,21.55
2022-12-22T06:38:42.850Z,21.53
2022-12-22T06:39:42.865Z,21.53
2022-12-22T06:40:42.887Z,21.52
2022-12-22T06:41:42.897Z,21.52
2022-12-22T06:42:42.935Z,21.49
2022-12-22T06:43:42.954Z,21.49
2022-12-22T06:44:43.068Z,21.49
2022-12-22T06:45:43.005Z,21.49
2022-12-22T06:46:43.235Z,21.48
2022-12-22T06:47:43.083Z,21.48
2022-12-22T06:48:43.047Z,21.46
2022-12-22T06:49:43.092Z,21.45
2022-12-22T06:50:43.051Z,21.43
2022-12-22T06:51:43.060Z,21.45
2022-12-22T06:52:43.080Z,21.43
2022-12-22T06:53:43.118Z,21.43
2022-12-22T06:54:43.155Z,21.42
2022-12-22T06:55:43.131Z,21.40
2022-12-22T06:56:43.173Z,21.42
2022-12-22T06:57:43.187Z,21.38
2022-12-22T06:58:43.210Z,21.40
2022-12-22T06:59:43.167Z,21.38
2022-12-22T07:00:43.189Z,21.37
2022-12-22T07:01:43.501Z,21.36
2022-12-22T07:02:43.429Z,21.36
2022-12-22T07:03:43.241Z,21.36
2022-12-22T07:04:43.201Z,21.34
2022-12-22T07:05:43.228Z,21.36
2022-12-22T07:06:43.233Z,21.33
2022-12-22T07:07:43.298Z,21.31
2022-12-22T07:08:43.250Z,21.30
2022-12-22T07:09:43.352Z,21.31
2022-12-22T07:10:43.257Z,21.31
2022-12-22T07:11:43.293Z,21.30
2022-12-22T07:12:43.264Z,21.30
2022-12-22T07:13:43.292Z,21.30
2022-12-22T07:14:43.269Z,21.28
2022-12-22T07:15:43.381Z,21.27
2022-12-22T07:16:43.440Z,21.27
2022-12-22T07:17:43.322Z,21.27
2022-12-22T07:18:43.366Z,21.26
2022-12-22T07:19:43.341Z,21.26
2022-12-22T07:20:43.364Z,21.24
2022-12-22T07:21:43.438Z,21.22
2022-12-22T07:22:43.394Z,21.21
2022-12-22T07:23:43.425Z,21.22
2022-12-22T07:24:43.467Z,21.24
2022-12-22T07:25:43.432Z,21.26
2022-12-22T07:26:43.518Z,21.27
2022-12-22T07:27:43.484Z,21.30
2022-12-22T07:28:43.621Z,21.30
2022-12-22T07:29:43.514Z,21.31
2022-12-22T07:30:43.523Z,21.33
2022-12-22T07:31:43.599Z,21.33
2022-12-22T07:32:43.562Z,21.36
2022-12-22T07:33:43.590Z,21.34
2022-12-22T07:34:43.570Z,21.36
2022-12-22T07:35:43.576Z,21.37
2022-12-22T07:36:43.573Z,21.37
2022-12-22T07:37:43.587Z,21.38
2022-12-22T07:38:43.599Z,21.37
2022-12-22T07:39:43.610Z,21.37
2022-12-22T07:40:47.961Z,21.34
2022-12-22T07:41:43.655Z,21.36
2022-12-22T07:42:43.661Z,21.36
2022-12-22T07:43:43.680Z,21.31
2022-12-22T07:44:43.694Z,21.31
2022-12-22T07:45:43.728Z,21.30
2022-12-22T07:46:43.820Z,21.30
2022-12-22T07:47:43.826Z,21.30
2022-12-22T07:48:43.776Z,21.30
2022-12-22T07:49:43.796Z,21.30
2022-12-22T07:50:43.825Z,21.27
2022-12-22T07:51:43.831Z,21.28
2022-12-22T07:52:43.843Z,21.28
2022-12-22T07:53:43.891Z,21.31
2022-12-22T07:54:43.945Z,21.30
2022-12-22T07:55:43.915Z,21.33
2022-12-22T07:56:43.928Z,21.33
2022-12-22T07:57:43.912Z,21.33
2022-12-22T07:58:43.971Z,21.33
2022-12-22T07:59:43.958Z,21.33
2022-12-22T08:00:43.939Z,21.34
2022-12-22T08:01:44.182Z,21.33
2022-12-22T08:02:44.217Z,21.34
2022-12-22T08:03:43.965Z,21.36
2022-12-22T08:04:44.164Z,21.33
2022-12-22T08:05:43.985Z,21.33
2022-12-22T08:06:44.052Z,21.31
2022-12-22T08:07:44.006Z,21.30
2022-12-22T08:08:44.012Z,21.28
2022-12-22T08:09:44.030Z,21.27
2022-12-22T08:10:44.029Z,21.27
2022-12-22T08:11:44.093Z,21.24
2022-12-22T08:12:44.326Z,21.24
2022-12-22T08:13:44.052Z,21.21
2022-12-22T08:14:44.123Z,21.22
2022-12-22T08:15:44.158Z,21.21
2022-12-22T08:16:44.209Z,21.21
2022-12-22T08:17:44.163Z,21.16
2022-12-22T08:18:44.152Z,21.16
2022-12-22T08:19:44.183Z,21.15
2022-12-22T08:20:44.150Z,21.15
2022-12-22T08:21:50.298Z,21.13
2022-12-22T08:22:44.198Z,21.13
2022-12-22T08:23:44.207Z,21.12
2022-12-22T08:24:44.226Z,21.12
2022-12-22T08:25:44.243Z,21.11
2022-12-22T08:26:44.258Z,21.11
2022-12-22T08:27:44.309Z,21.09
2022-12-22T08:28:44.278Z,21.08
2022-12-22T08:29:44.359Z,21.08
2022-12-22T08:30:44.293Z,21.06
2022-12-22T08:31:44.475Z,21.06
2022-12-22T08:32:44.293Z,21.03
2022-12-22T08:33:44.363Z,21.05
2022-12-22T08:34:44.324Z,21.06
2022-12-22T08:35:44.289Z,21.06
2022-12-22T08:36:44.298Z,21.09
2022-12-22T08:37:44.318Z,21.11
2022-12-22T08:38:44.338Z,21.11
2022-12-22T08:39:44.402Z,21.12
2022-12-22T08:40:44.386Z,21.13
2022-12-22T08:41:44.424Z,21.13
2022-12-22T08:42:44.417Z,21.15
2022-12-22T08:43:44.446Z,21.15
2022-12-22T08:44:44.427Z,21.16
2022-12-22T08:45:44.416Z,21.16
2022-12-22T08:46:44.526Z,21.18
2022-12-22T08:47:44.446Z,21.16
2022-12-22T08:48:44.487Z,21.15
2022-12-22T08:49:44.478Z,21.15
2022-12-22T08:50:44.484Z,21.15
2022-12-22T08:51:44.537Z,21.12
2022-12-22T08:52:44.519Z,21.12
2022-12-22T08:54:04.488Z,21.11
2022-12-22T08:54:44.528Z,21.09
2022-12-22T08:55:44.512Z,21.09
2022-12-22T08:56:44.573Z,21.09
2022-12-22T08:57:44.585Z,21.08
2022-12-22T08:58:44.624Z,21.09
2022-12-22T08:59:44.551Z,21.11
2022-12-22T09:00:44.626Z,21.09
2022-12-22T09:01:44.911Z,21.08
2022-12-22T09:02:44.858Z,21.08
2022-12-22T09:03:44.602Z,21.08
2022-12-22T09:04:44.598Z,21.09
2022-12-22T09:05:44.581Z,21.09
2022-12-22T09:06:44.565Z,21.12
2022-12-22T09:07:44.577Z,21.12
2022-12-22T09:08:44.653Z,21.15
2022-12-22T09:09:44.666Z,21.15
2022-12-22T09:10:44.631Z,21.18
2022-12-22T09:11:44.663Z,21.21
2022-12-22T09:12:44.729Z,21.22
2022-12-22T09:13:44.718Z,21.27
2022-12-22T09:14:44.773Z,21.30
2022-12-22T09:15:44.759Z,21.34
2022-12-22T09:16:44.947Z,21.37
2022-12-22T09:17:44.744Z,21.38
2022-12-22T09:18:44.769Z,21.43
2022-12-22T09:19:44.828Z,21.45
2022-12-22T09:20:44.794Z,21.46
2022-12-22T09:21:44.813Z,21.51
2022-12-22T09:22:44.845Z,21.52
2022-12-22T09:23:44.862Z,21.56
2022-12-22T09:24:44.857Z,21.59
2022-12-22T09:25:44.845Z,21.61
2022-12-22T09:26:44.843Z,21.63
2022-12-22T09:27:44.837Z,21.66
2022-12-22T09:28:49.806Z,21.68
2022-12-22T09:29:44.881Z,21.68
2022-12-22T09:30:44.879Z,21.70
2022-12-22T09:31:45.127Z,21.70
2022-12-22T09:32:44.883Z,21.71
2022-12-22T09:33:44.935Z,21.71
2022-12-22T09:34:44.906Z,21.71
2022-12-22T09:35:44.943Z,21.73
2022-12-22T09:36:45.037Z,21.73
2022-12-22T09:37:45.020Z,21.73
2022-12-22T09:38:45.005Z,21.73
2022-12-22T09:39:45.027Z,21.73
2022-12-22T09:40:45.043Z,21.74
2022-12-22T09:41:45.044Z,21.74
2022-12-22T09:42:45.094Z,21.74
2022-12-22T09:43:45.082Z,21.75
2022-12-22T09:44:45.139Z,21.75
2022-12-22T09:45:45.176Z,21.75
2022-12-22T09:46:45.085Z,21.75
2022-12-22T09:47:45.114Z,21.79
2022-12-22T09:48:45.162Z,21.79
2022-12-22T09:49:45.111Z,21.81
2022-12-22T09:50:45.161Z,21.83
2022-12-22T09:51:45.098Z,21.85
2022-12-22T09:52:45.132Z,21.86
2022-12-22T09:53:45.176Z,21.90
2022-12-22T09:54:45.145Z,21.91
2022-12-22T09:55:45.204Z,21.93
2022-12-22T09:56:45.218Z,21.91
2022-12-22T09:57:45.250Z,21.93
2022-12-22T09:58:45.307Z,21.94
2022-12-22T09:59:45.287Z,21.94
2022-12-22T10:00:45.343Z,21.96
2022-12-22T10:01:45.486Z,21.96
2022-12-22T10:02:45.634Z,21.96
2022-12-22T10:03:45.454Z,21.94
2022-12-22T10:04:45.352Z,21.94
2022-12-22T10:05:45.409Z,21.96
2022-12-22T10:06:46.079Z,21.99
2022-12-22T10:07:45.397Z,22.02
2022-12-22T10:08:45.391Z,22.06
2022-12-22T10:09:50.266Z,22.14
2022-12-22T10:10:45.406Z,22.19
2022-12-22T10:11:45.381Z,22.24
2022-12-22T10:12:45.412Z,22.31
2022-12-22T10:13:45.395Z,22.36
2022-12-22T10:14:45.424Z,22.41
2022-12-22T10:15:45.443Z,22.46
2022-12-22T10:16:45.516Z,22.51
2022-12-22T10:17:45.480Z,22.57
2022-12-22T10:18:45.490Z,22.60
2022-12-22T10:19:45.514Z,22.69
2022-12-22T10:20:45.549Z,22.74
2022-12-22T10:21:47.156Z,22.78
2022-12-22T10:22:45.530Z,22.81
2022-12-22T10:23:45.575Z,22.85
2022-12-22T10:24:45.544Z,22.89
2022-12-22T10:26:25.893Z,22.94
2022-12-22T10:26:45.587Z,22.96
2022-12-22T10:27:51.339Z,23.01
2022-12-22T10:28:45.570Z,23.04
2022-12-22T10:29:45.603Z,23.06
2022-12-22T10:30:45.583Z,23.09
2022-12-22T10:31:45.650Z,23.09
2022-12-22T10:32:45.635Z,23.14
2022-12-22T10:33:47.542Z,23.19
2022-12-22T10:34:45.683Z,23.19
2022-12-22T10:35:45.655Z,23.22
2022-12-22T10:36:45.687Z,23.23
2022-12-22T10:37:45.785Z,23.26
2022-12-22T10:38:45.737Z,23.31
2022-12-22T10:39:45.728Z,23.37
2022-12-22T10:40:45.723Z,23.35
2022-12-22T10:41:45.753Z,23.37
2022-12-22T10:42:45.734Z,23.41
2022-12-22T10:43:45.747Z,23.44
2022-12-22T10:44:45.791Z,23.47
2022-12-22T10:45:45.817Z,23.50
2022-12-22T10:46:45.810Z,23.53
2022-12-22T10:47:45.801Z,23.53
2022-12-22T10:48:45.834Z,23.54
2022-12-22T10:49:45.848Z,23.53
2022-12-22T10:50:45.824Z,23.53
2022-12-22T10:51:45.799Z,23.57
2022-12-22T10:52:45.869Z,23.60
2022-12-22T10:53:45.839Z,23.63
2022-12-22T10:54:45.865Z,23.64
2022-12-22T10:55:45.889Z,23.68
2022-12-22T10:56:45.889Z,23.67
2022-12-22T10:57:45.899Z,23.69
2022-12-22T10:58:45.878Z,23.68
2022-12-22T10:59:45.889Z,23.68
2022-12-22T11:00:45.903Z,23.64
2022-12-22T11:01:46.158Z,23.63
2022-12-22T11:02:45.990Z,23.63
2022-12-22T11:03:46.011Z,23.63
2022-12-22T11:04:45.900Z,23.62
2022-12-22T11:05:45.927Z,23.62
2022-12-22T11:06:45.884Z,23.62
2022-12-22T11:07:45.904Z,23.62
2022-12-22T11:08:51.252Z,23.60
2022-12-22T11:09:45.969Z,23.62
2022-12-22T11:10:45.940Z,23.62
2022-12-22T11:11:45.996Z,23.63
2022-12-22T11:12:45.962Z,23.63
2022-12-22T11:13:45.998Z,23.62
2022-12-22T11:14:46.027Z,23.62
2022-12-22T11:15:46.015Z,23.60
2022-12-22T11:16:46.116Z,23.62
2022-12-22T11:17:46.065Z,23.60
2022-12-22T11:18:46.017Z,23.60
2022-12-22T11:19:46.088Z,23.60
2022-12-22T11:20:46.065Z,23.59
2022-12-22T11:21:46.105Z,23.57
2022-12-22T11:22:46.167Z,23.59
2022-12-22T11:23:46.102Z,23.57
2022-12-22T11:24:46.102Z,23.56
2022-12-22T11:25:46.155Z,23.57
2022-12-22T11:26:46.115Z,23.56
2022-12-22T11:27:46.558Z,23.57
2022-12-22T11:28:46.190Z,23.56
2022-12-22T11:29:46.233Z,23.57
2022-12-22T11:30:46.277Z,23.57
2022-12-22T11:31:46.243Z,23.57
2022-12-22T11:32:46.285Z,23.56
2022-12-22T11:33:46.295Z,23.56
2022-12-22T11:34:46.304Z,23.54
2022-12-22T11:35:46.284Z,23.53
2022-12-22T11:36:46.272Z,23.54
2022-12-22T11:37:46.336Z,23.52
2022-12-22T11:38:46.284Z,23.52
2022-12-22T11:39:46.335Z,23.50
2022-12-22T11:40:46.337Z,23.50
2022-12-22T11:41:46.335Z,23.47
2022-12-22T11:42:46.347Z,23.47
2022-12-22T11:43:46.333Z,23.45
2022-12-22T11:44:46.417Z,23.44
2022-12-22T11:45:46.359Z,23.42
2022-12-22T11:46:46.428Z,23.39
2022-12-22T11:47:46.326Z,23.39
2022-12-22T11:48:46.358Z,23.39
2022-12-22T11:49:46.341Z,23.39
2022-12-22T11:50:59.083Z,23.39
2022-12-22T11:51:46.373Z,23.39
2022-12-22T11:52:46.361Z,23.38
2022-12-22T11:53:46.450Z,23.38
2022-12-22T11:54:46.432Z,23.37
2022-12-22T11:55:46.455Z,23.38
2022-12-22T11:56:46.425Z,23.38
2022-12-22T11:57:46.468Z,23.38
2022-12-22T11:58:46.482Z,23.39
2022-12-22T11:59:46.473Z,23.38
2022-12-22T12:01:13.666Z,23.37
2022-12-22T12:01:46.607Z,23.35
2022-12-22T12:02:46.615Z,23.35
2022-12-22T12:03:46.646Z,23.37
2022-12-22T12:04:46.562Z,23.35
2022-12-22T12:05:46.589Z,23.34
2022-12-22T12:06:46.628Z,23.35
2022-12-22T12:07:46.611Z,23.38
2022-12-22T12:08:46.611Z,23.37
2022-12-22T12:09:47.161Z,23.38
2022-12-22T12:10:46.615Z,23.39
2022-12-22T12:11:46.593Z,23.38
2022-12-22T12:12:46.650Z,23.39
2022-12-22T12:13:46.675Z,23.35
2022-12-22T12:14:46.661Z,23.37
2022-12-22T12:15:46.761Z,23.34
2022-12-22T12:16:46.712Z,23.32
2022-12-22T12:17:46.696Z,23.35
2022-12-22T12:18:46.743Z,23.32
2022-12-22T12:19:46.732Z,23.31
2022-12-22T12:20:46.755Z,23.26
2022-12-22T12:21:46.743Z,23.23
2022-12-22T12:22:46.744Z,23.22
2022-12-22T12:23:46.731Z,23.19
2022-12-22T12:24:46.796Z,23.18
2022-12-22T12:25:46.832Z,23.16
2022-12-22T12:26:46.711Z,23.18
2022-12-22T12:27:46.721Z,23.18
2022-12-22T12:28:46.759Z,23.14
2022-12-22T12:30:06.264Z,23.12
2022-12-22T12:30:46.808Z,23.09
2022-12-22T12:31:46.901Z,23.07
2022-12-22T12:32:46.763Z,23.07
2022-12-22T12:33:46.798Z,23.06
2022-12-22T12:34:46.789Z,23.04
2022-12-22T12:35:46.777Z,23.01
2022-12-22T12:36:46.802Z,23.00
2022-12-22T12:37:46.839Z,23.00
2022-12-22T12:39:46.879Z,22.97
2022-12-22T12:40:46.888Z,22.99
2022-12-22T12:41:47.025Z,22.97
2022-12-22T12:42:46.990Z,22.96
2022-12-22T12:43:47.003Z,22.97
2022-12-22T12:44:47.023Z,22.96
2022-12-22T12:45:47.028Z,22.96
2022-12-22T12:46:47.051Z,22.96
2022-12-22T12:47:47.030Z,22.93
2022-12-22T12:48:47.059Z,22.93
2022-12-22T12:49:47.075Z,22.94
2022-12-22T12:50:47.442Z,22.94
2022-12-22T12:51:47.260Z,22.94
2022-12-22T12:52:47.132Z,22.91
2022-12-22T12:53:47.111Z,22.91
2022-12-22T12:54:47.101Z,22.89